sensor_id;sensor_type;location;lat;lon;timestamp;P1;durP1;ratioP1;P2;durP2;ratioP2
75864;SDS011;64510;46.704;38.274;2023-02-22T00:00:14;4.47;;;1.42;;
75864;SDS011;64510;46.704;38.274;2023-02-22T00:02:50;6.70;;;1.35;;
75864;SDS011;64510;46.704;38.274;2023-02-22T00:05:18;5.05;;;1.98;;
75864;SDS011;64510;46.704;38.274;2023-02-22T00:07:45;2.83;;;1.95;;
75864;SDS011;64510;46.704;38.274;2023-02-22T00:10:12;1.58;;;1.35;;
75864;SDS011;64510;46.704;38.274;2023-02-22T00:12:40;4.00;;;1.45;;
75864;SDS011;64510;46.704;38.274;2023-02-22T00:15:08;2.40;;;1.83;;
75864;SDS011;64510;46.704;38.274;2023-02-22T00:17:37;3.38;;;1.52;;
75864;SDS011;64510;46.704;38.274;2023-02-22T00:20:03;2.50;;;1.83;;
75864;SDS011;64510;46.704;38.274;2023-02-22T00:22:34;4.00;;;1.95;;
75864;SDS011;64510;46.704;38.274;2023-02-22T00:25:00;4.97;;;1.70;;
75864;SDS011;64510;46.704;38.274;2023-02-22T00:27:26;2.83;;;2.17;;
75864;SDS011;64510;46.704;38.274;2023-02-22T00:29:52;4.00;;;1.90;;
75864;SDS011;64510;46.704;38.274;2023-02-22T00:32:20;8.23;;;1.42;;
75864;SDS011;64510;46.704;38.274;2023-02-22T00:34:50;2.13;;;1.55;;
75864;SDS011;64510;46.704;38.274;2023-02-22T00:37:17;2.50;;;1.30;;
75864;SDS011;64510;46.704;38.274;2023-02-22T00:39:47;3.63;;;1.30;;
75864;SDS011;64510;46.704;38.274;2023-02-22T00:42:15;2.47;;;1.90;;
75864;SDS011;64510;46.704;38.274;2023-02-22T00:44:42;2.40;;;1.58;;
75864;SDS011;64510;46.704;38.274;2023-02-22T00:47:11;4.65;;;1.85;;
75864;SDS011;64510;46.704;38.274;2023-02-22T00:49:37;3.10;;;1.92;;
75864;SDS011;64510;46.704;38.274;2023-02-22T00:52:03;2.53;;;1.90;;
75864;SDS011;64510;46.704;38.274;2023-02-22T00:54:29;5.25;;;1.83;;
75864;SDS011;64510;46.704;38.274;2023-02-22T00:56:56;12.68;;;3.17;;
75864;SDS011;64510;46.704;38.274;2023-02-22T00:59:22;2.15;;;1.75;;
75864;SDS011;64510;46.704;38.274;2023-02-22T01:01:48;7.53;;;3.00;;
75864;SDS011;64510;46.704;38.274;2023-02-22T01:04:14;3.38;;;1.88;;
75864;SDS011;64510;46.704;38.274;2023-02-22T01:06:40;6.15;;;1.80;;
75864;SDS011;64510;46.704;38.274;2023-02-22T01:09:06;3.38;;;1.42;;
75864;SDS011;64510;46.704;38.274;2023-02-22T01:11:32;3.08;;;2.33;;
75864;SDS011;64510;46.704;38.274;2023-02-22T01:13:59;8.60;;;2.42;;
75864;SDS011;64510;46.704;38.274;2023-02-22T01:16:25;5.38;;;1.48;;
75864;SDS011;64510;46.704;38.274;2023-02-22T01:18:51;6.30;;;1.85;;
75864;SDS011;64510;46.704;38.274;2023-02-22T01:21:18;7.57;;;1.85;;
75864;SDS011;64510;46.704;38.274;2023-02-22T01:23:44;5.47;;;2.13;;
75864;SDS011;64510;46.704;38.274;2023-02-22T01:26:10;5.20;;;2.40;;
75864;SDS011;64510;46.704;38.274;2023-02-22T01:28:36;5.30;;;1.80;;
75864;SDS011;64510;46.704;38.274;2023-02-22T01:31:03;4.22;;;1.73;;
75864;SDS011;64510;46.704;38.274;2023-02-22T01:33:29;6.00;;;2.65;;
75864;SDS011;64510;46.704;38.274;2023-02-22T01:35:56;2.33;;;1.48;;
75864;SDS011;64510;46.704;38.274;2023-02-22T01:38:22;5.20;;;2.03;;
75864;SDS011;64510;46.704;38.274;2023-02-22T01:40:49;3.17;;;2.30;;
75864;SDS011;64510;46.704;38.274;2023-02-22T01:48:45;3.83;;;1.60;;
75864;SDS011;64510;46.704;38.274;2023-02-22T01:51:28;3.58;;;1.63;;
75864;SDS011;64510;46.704;38.274;2023-02-22T01:56:52;1.80;;;1.70;;
75864;SDS011;64510;46.704;38.274;2023-02-22T01:59:25;6.22;;;2.60;;
75864;SDS011;64510;46.704;38.274;2023-02-22T02:01:53;16.33;;;2.30;;
75864;SDS011;64510;46.704;38.274;2023-02-22T02:04:20;3.47;;;1.50;;
75864;SDS011;64510;46.704;38.274;2023-02-22T02:06:53;3.47;;;1.70;;
75864;SDS011;64510;46.704;38.274;2023-02-22T02:12:17;1.88;;;1.75;;
75864;SDS011;64510;46.704;38.274;2023-02-22T02:14:45;2.75;;;1.17;;
75864;SDS011;64510;46.704;38.274;2023-02-22T02:17:12;2.15;;;1.70;;
75864;SDS011;64510;46.704;38.274;2023-02-22T02:22:20;2.70;;;1.63;;
75864;SDS011;64510;46.704;38.274;2023-02-22T02:38:30;10.23;;;1.75;;
75864;SDS011;64510;46.704;38.274;2023-02-22T02:41:28;3.03;;;1.35;;
75864;SDS011;64510;46.704;38.274;2023-02-22T02:46:30;4.90;;;2.72;;
75864;SDS011;64510;46.704;38.274;2023-02-22T02:48:58;5.82;;;1.98;;
75864;SDS011;64510;46.704;38.274;2023-02-22T02:51:29;5.55;;;2.00;;
75864;SDS011;64510;46.704;38.274;2023-02-22T02:54:01;2.97;;;1.77;;
75864;SDS011;64510;46.704;38.274;2023-02-22T02:56:28;6.32;;;2.67;;
75864;SDS011;64510;46.704;38.274;2023-02-22T02:58:55;1.55;;;1.05;;
75864;SDS011;64510;46.704;38.274;2023-02-22T03:06:41;3.42;;;2.30;;
75864;SDS011;64510;46.704;38.274;2023-02-22T03:09:29;1.83;;;1.27;;
75864;SDS011;64510;46.704;38.274;2023-02-22T03:12:26;6.38;;;2.63;;
75864;SDS011;64510;46.704;38.274;2023-02-22T03:21:20;6.20;;;2.00;;
75864;SDS011;64510;46.704;38.274;2023-02-22T03:26:44;2.72;;;2.47;;
75864;SDS011;64510;46.704;38.274;2023-02-22T03:29:19;3.50;;;2.08;;
75864;SDS011;64510;46.704;38.274;2023-02-22T03:31:50;5.65;;;2.88;;
75864;SDS011;64510;46.704;38.274;2023-02-22T03:34:23;3.75;;;2.55;;
75864;SDS011;64510;46.704;38.274;2023-02-22T03:37:36;6.15;;;2.35;;
75864;SDS011;64510;46.704;38.274;2023-02-22T03:39:44;4.70;;;2.08;;
75864;SDS011;64510;46.704;38.274;2023-02-22T03:42:20;3.17;;;2.38;;
75864;SDS011;64510;46.704;38.274;2023-02-22T03:44:49;9.20;;;2.20;;
75864;SDS011;64510;46.704;38.274;2023-02-22T03:47:20;2.92;;;1.63;;
75864;SDS011;64510;46.704;38.274;2023-02-22T03:49:54;5.95;;;1.45;;
75864;SDS011;64510;46.704;38.274;2023-02-22T03:52:33;1.88;;;1.73;;
75864;SDS011;64510;46.704;38.274;2023-02-22T03:55:00;3.20;;;1.55;;
75864;SDS011;64510;46.704;38.274;2023-02-22T03:57:27;13.80;;;2.88;;
75864;SDS011;64510;46.704;38.274;2023-02-22T04:00:04;5.53;;;2.38;;
75864;SDS011;64510;46.704;38.274;2023-02-22T04:02:38;3.70;;;1.92;;
75864;SDS011;64510;46.704;38.274;2023-02-22T04:05:05;3.38;;;1.40;;
75864;SDS011;64510;46.704;38.274;2023-02-22T04:07:31;3.75;;;1.98;;
75864;SDS011;64510;46.704;38.274;2023-02-22T04:09:57;5.93;;;1.88;;
75864;SDS011;64510;46.704;38.274;2023-02-22T04:12:24;1.85;;;1.75;;
75864;SDS011;64510;46.704;38.274;2023-02-22T04:14:57;2.28;;;1.80;;
75864;SDS011;64510;46.704;38.274;2023-02-22T04:17:23;3.40;;;1.48;;
75864;SDS011;64510;46.704;38.274;2023-02-22T04:19:49;6.38;;;2.17;;
75864;SDS011;64510;46.704;38.274;2023-02-22T04:22:16;3.10;;;2.15;;
75864;SDS011;64510;46.704;38.274;2023-02-22T04:24:44;6.40;;;2.53;;
75864;SDS011;64510;46.704;38.274;2023-02-22T04:27:10;5.38;;;2.00;;
75864;SDS011;64510;46.704;38.274;2023-02-22T04:29:37;4.72;;;2.63;;
75864;SDS011;64510;46.704;38.274;2023-02-22T04:32:05;4.45;;;2.20;;
75864;SDS011;64510;46.704;38.274;2023-02-22T04:34:32;2.55;;;1.90;;
75864;SDS011;64510;46.704;38.274;2023-02-22T04:36:58;2.50;;;1.88;;
75864;SDS011;64510;46.704;38.274;2023-02-22T04:39:25;3.55;;;3.15;;
75864;SDS011;64510;46.704;38.274;2023-02-22T04:41:51;5.65;;;2.92;;
75864;SDS011;64510;46.704;38.274;2023-02-22T04:44:17;6.75;;;2.08;;
75864;SDS011;64510;46.704;38.274;2023-02-22T04:46:43;5.18;;;1.73;;
75864;SDS011;64510;46.704;38.274;2023-02-22T04:49:12;4.88;;;1.95;;
75864;SDS011;64510;46.704;38.274;2023-02-22T04:51:40;4.57;;;2.65;;
75864;SDS011;64510;46.704;38.274;2023-02-22T04:54:10;3.70;;;1.83;;
75864;SDS011;64510;46.704;38.274;2023-02-22T04:56:41;2.08;;;1.27;;
75864;SDS011;64510;46.704;38.274;2023-02-22T04:59:07;1.52;;;1.50;;
75864;SDS011;64510;46.704;38.274;2023-02-22T05:01:34;3.78;;;2.60;;
75864;SDS011;64510;46.704;38.274;2023-02-22T05:04:02;2.67;;;2.17;;
75864;SDS011;64510;46.704;38.274;2023-02-22T05:06:28;6.20;;;1.55;;
75864;SDS011;64510;46.704;38.274;2023-02-22T05:08:55;5.10;;;2.00;;
75864;SDS011;64510;46.704;38.274;2023-02-22T05:11:21;4.22;;;1.73;;
75864;SDS011;64510;46.704;38.274;2023-02-22T05:13:47;3.38;;;1.85;;
75864;SDS011;64510;46.704;38.274;2023-02-22T05:16:13;5.13;;;2.65;;
75864;SDS011;64510;46.704;38.274;2023-02-22T05:18:40;6.22;;;2.65;;
75864;SDS011;64510;46.704;38.274;2023-02-22T05:21:06;3.22;;;2.10;;
75864;SDS011;64510;46.704;38.274;2023-02-22T05:23:32;3.80;;;2.28;;
75864;SDS011;64510;46.704;38.274;2023-02-22T05:25:58;4.55;;;1.80;;
75864;SDS011;64510;46.704;38.274;2023-02-22T05:28:25;3.60;;;2.00;;
75864;SDS011;64510;46.704;38.274;2023-02-22T05:30:52;10.38;;;1.67;;
75864;SDS011;64510;46.704;38.274;2023-02-22T05:33:18;4.53;;;2.10;;
75864;SDS011;64510;46.704;38.274;2023-02-22T05:35:43;8.00;;;2.47;;
75864;SDS011;64510;46.704;38.274;2023-02-22T05:38:13;5.30;;;2.20;;
75864;SDS011;64510;46.704;38.274;2023-02-22T05:40:40;16.33;;;2.00;;
75864;SDS011;64510;46.704;38.274;2023-02-22T05:43:07;2.83;;;2.00;;
75864;SDS011;64510;46.704;38.274;2023-02-22T05:45:34;2.28;;;1.98;;
75864;SDS011;64510;46.704;38.274;2023-02-22T05:48:00;6.03;;;1.80;;
75864;SDS011;64510;46.704;38.274;2023-02-22T05:50:27;1.85;;;1.55;;
75864;SDS011;64510;46.704;38.274;2023-02-22T05:52:53;3.22;;;1.77;;
75864;SDS011;64510;46.704;38.274;2023-02-22T05:55:21;2.38;;;1.73;;
75864;SDS011;64510;46.704;38.274;2023-02-22T05:57:48;5.88;;;2.17;;
75864;SDS011;64510;46.704;38.274;2023-02-22T06:00:25;5.35;;;1.77;;
75864;SDS011;64510;46.704;38.274;2023-02-22T06:02:58;4.05;;;2.42;;
75864;SDS011;64510;46.704;38.274;2023-02-22T06:05:29;3.47;;;1.60;;
75864;SDS011;64510;46.704;38.274;2023-02-22T06:07:55;2.20;;;1.42;;
75864;SDS011;64510;46.704;38.274;2023-02-22T06:10:22;6.93;;;1.80;;
75864;SDS011;64510;46.704;38.274;2023-02-22T06:12:48;3.40;;;2.20;;
75864;SDS011;64510;46.704;38.274;2023-02-22T06:15:16;3.20;;;1.52;;
75864;SDS011;64510;46.704;38.274;2023-02-22T06:17:43;3.53;;;1.75;;
75864;SDS011;64510;46.704;38.274;2023-02-22T06:20:10;6.97;;;2.22;;
75864;SDS011;64510;46.704;38.274;2023-02-22T06:22:37;2.42;;;2.22;;
75864;SDS011;64510;46.704;38.274;2023-02-22T06:25:05;3.17;;;1.85;;
75864;SDS011;64510;46.704;38.274;2023-02-22T06:27:33;3.20;;;1.98;;
75864;SDS011;64510;46.704;38.274;2023-02-22T06:29:59;3.47;;;1.92;;
75864;SDS011;64510;46.704;38.274;2023-02-22T06:32:27;3.28;;;2.72;;
75864;SDS011;64510;46.704;38.274;2023-02-22T06:34:53;4.65;;;2.45;;
75864;SDS011;64510;46.704;38.274;2023-02-22T06:37:18;4.25;;;1.88;;
75864;SDS011;64510;46.704;38.274;2023-02-22T06:39:44;2.85;;;2.05;;
75864;SDS011;64510;46.704;38.274;2023-02-22T06:42:10;5.60;;;2.30;;
75864;SDS011;64510;46.704;38.274;2023-02-22T06:44:36;2.72;;;1.67;;
75864;SDS011;64510;46.704;38.274;2023-02-22T06:47:02;6.40;;;2.90;;
75864;SDS011;64510;46.704;38.274;2023-02-22T06:49:28;2.38;;;2.20;;
75864;SDS011;64510;46.704;38.274;2023-02-22T06:51:54;6.93;;;3.70;;
75864;SDS011;64510;46.704;38.274;2023-02-22T06:54:20;7.50;;;2.72;;
75864;SDS011;64510;46.704;38.274;2023-02-22T06:56:47;2.00;;;1.80;;
75864;SDS011;64510;46.704;38.274;2023-02-22T06:59:14;3.25;;;2.53;;
75864;SDS011;64510;46.704;38.274;2023-02-22T07:01:40;4.13;;;3.60;;
75864;SDS011;64510;46.704;38.274;2023-02-22T07:04:07;3.70;;;2.90;;
75864;SDS011;64510;46.704;38.274;2023-02-22T07:06:33;9.93;;;3.35;;
75864;SDS011;64510;46.704;38.274;2023-02-22T07:09:00;6.53;;;4.72;;
75864;SDS011;64510;46.704;38.274;2023-02-22T07:11:26;8.32;;;6.15;;
75864;SDS011;64510;46.704;38.274;2023-02-22T07:13:52;8.30;;;5.60;;
75864;SDS011;64510;46.704;38.274;2023-02-22T07:16:19;10.73;;;6.50;;
75864;SDS011;64510;46.704;38.274;2023-02-22T07:18:45;11.18;;;8.20;;
75864;SDS011;64510;46.704;38.274;2023-02-22T07:21:11;7.68;;;6.22;;
75864;SDS011;64510;46.704;38.274;2023-02-22T07:23:37;9.98;;;7.25;;
75864;SDS011;64510;46.704;38.274;2023-02-22T07:26:03;6.72;;;5.88;;
75864;SDS011;64510;46.704;38.274;2023-02-22T07:28:30;7.70;;;6.35;;
75864;SDS011;64510;46.704;38.274;2023-02-22T07:30:56;8.77;;;5.25;;
75864;SDS011;64510;46.704;38.274;2023-02-22T07:33:23;10.20;;;7.40;;
75864;SDS011;64510;46.704;38.274;2023-02-22T07:35:49;8.48;;;6.15;;
75864;SDS011;64510;46.704;38.274;2023-02-22T07:38:16;8.00;;;4.78;;
75864;SDS011;64510;46.704;38.274;2023-02-22T07:40:43;9.10;;;6.68;;
75864;SDS011;64510;46.704;38.274;2023-02-22T07:43:14;10.23;;;6.22;;
75864;SDS011;64510;46.704;38.274;2023-02-22T07:45:42;6.38;;;4.35;;
75864;SDS011;64510;46.704;38.274;2023-02-22T07:48:08;7.75;;;4.93;;
75864;SDS011;64510;46.704;38.274;2023-02-22T07:50:37;8.50;;;4.82;;
75864;SDS011;64510;46.704;38.274;2023-02-22T07:53:04;9.70;;;6.75;;
75864;SDS011;64510;46.704;38.274;2023-02-22T07:55:32;10.30;;;6.53;;
75864;SDS011;64510;46.704;38.274;2023-02-22T07:58:00;9.85;;;7.10;;
75864;SDS011;64510;46.704;38.274;2023-02-22T08:00:31;6.60;;;4.95;;
75864;SDS011;64510;46.704;38.274;2023-02-22T08:02:59;10.15;;;6.05;;
75864;SDS011;64510;46.704;38.274;2023-02-22T08:05:27;7.50;;;4.80;;
75864;SDS011;64510;46.704;38.274;2023-02-22T08:07:54;9.38;;;6.25;;
75864;SDS011;64510;46.704;38.274;2023-02-22T08:10:21;8.18;;;5.82;;
75864;SDS011;64510;46.704;38.274;2023-02-22T08:12:49;7.75;;;4.70;;
75864;SDS011;64510;46.704;38.274;2023-02-22T08:15:26;8.30;;;5.32;;
75864;SDS011;64510;46.704;38.274;2023-02-22T08:20:23;8.75;;;4.55;;
75864;SDS011;64510;46.704;38.274;2023-02-22T08:22:49;5.47;;;4.75;;
75864;SDS011;64510;46.704;38.274;2023-02-22T08:25:15;6.82;;;5.10;;
75864;SDS011;64510;46.704;38.274;2023-02-22T08:27:42;7.03;;;5.60;;
75864;SDS011;64510;46.704;38.274;2023-02-22T08:30:10;10.00;;;6.75;;
75864;SDS011;64510;46.704;38.274;2023-02-22T08:32:44;9.88;;;5.85;;
75864;SDS011;64510;46.704;38.274;2023-02-22T08:35:11;12.25;;;7.20;;
75864;SDS011;64510;46.704;38.274;2023-02-22T08:37:44;9.02;;;5.22;;
75864;SDS011;64510;46.704;38.274;2023-02-22T08:40:12;9.48;;;5.70;;
75864;SDS011;64510;46.704;38.274;2023-02-22T08:42:41;7.63;;;4.53;;
75864;SDS011;64510;46.704;38.274;2023-02-22T08:45:08;9.80;;;5.88;;
75864;SDS011;64510;46.704;38.274;2023-02-22T08:47:34;14.98;;;10.27;;
75864;SDS011;64510;46.704;38.274;2023-02-22T08:50:01;10.55;;;6.60;;
75864;SDS011;64510;46.704;38.274;2023-02-22T08:52:27;8.60;;;5.47;;
75864;SDS011;64510;46.704;38.274;2023-02-22T08:54:53;6.63;;;4.72;;
75864;SDS011;64510;46.704;38.274;2023-02-22T08:57:20;8.68;;;5.45;;
75864;SDS011;64510;46.704;38.274;2023-02-22T08:59:46;7.95;;;6.25;;
75864;SDS011;64510;46.704;38.274;2023-02-22T09:02:15;7.45;;;5.40;;
75864;SDS011;64510;46.704;38.274;2023-02-22T09:04:44;12.73;;;5.22;;
75864;SDS011;64510;46.704;38.274;2023-02-22T09:07:10;7.82;;;5.75;;
75864;SDS011;64510;46.704;38.274;2023-02-22T09:09:36;12.65;;;6.32;;
75864;SDS011;64510;46.704;38.274;2023-02-22T09:12:02;7.22;;;6.53;;
75864;SDS011;64510;46.704;38.274;2023-02-22T09:14:29;13.35;;;8.02;;
75864;SDS011;64510;46.704;38.274;2023-02-22T09:16:55;8.43;;;5.38;;
75864;SDS011;64510;46.704;38.274;2023-02-22T09:19:21;9.35;;;5.85;;
75864;SDS011;64510;46.704;38.274;2023-02-22T09:21:57;9.27;;;5.53;;
75864;SDS011;64510;46.704;38.274;2023-02-22T09:24:24;9.90;;;4.95;;
75864;SDS011;64510;46.704;38.274;2023-02-22T09:26:50;8.98;;;4.50;;
75864;SDS011;64510;46.704;38.274;2023-02-22T09:29:20;9.02;;;5.43;;
75864;SDS011;64510;46.704;38.274;2023-02-22T09:31:48;7.55;;;5.40;;
75864;SDS011;64510;46.704;38.274;2023-02-22T09:34:16;9.60;;;5.55;;
75864;SDS011;64510;46.704;38.274;2023-02-22T09:36:45;4.85;;;4.15;;
75864;SDS011;64510;46.704;38.274;2023-02-22T09:39:12;7.40;;;5.22;;
75864;SDS011;64510;46.704;38.274;2023-02-22T09:47:02;9.02;;;6.13;;
75864;SDS011;64510;46.704;38.274;2023-02-22T09:51:57;8.27;;;5.13;;
75864;SDS011;64510;46.704;38.274;2023-02-22T09:54:33;6.32;;;3.78;;
75864;SDS011;64510;46.704;38.274;2023-02-22T09:57:08;5.43;;;4.10;;
75864;SDS011;64510;46.704;38.274;2023-02-22T10:00:23;7.57;;;4.70;;
75864;SDS011;64510;46.704;38.274;2023-02-22T10:03:10;8.63;;;3.97;;
75864;SDS011;64510;46.704;38.274;2023-02-22T10:05:35;4.43;;;3.95;;
75864;SDS011;64510;46.704;38.274;2023-02-22T10:08:10;11.90;;;5.15;;
75864;SDS011;64510;46.704;38.274;2023-02-22T10:10:40;6.88;;;4.28;;
75864;SDS011;64510;46.704;38.274;2023-02-22T10:15:58;7.72;;;5.32;;
75864;SDS011;64510;46.704;38.274;2023-02-22T10:24:27;5.18;;;2.72;;
75864;SDS011;64510;46.704;38.274;2023-02-22T10:27:18;6.38;;;4.40;;
75864;SDS011;64510;46.704;38.274;2023-02-22T10:30:03;8.90;;;3.72;;
75864;SDS011;64510;46.704;38.274;2023-02-22T10:32:40;7.57;;;4.65;;
75864;SDS011;64510;46.704;38.274;2023-02-22T10:35:21;5.72;;;3.53;;
75864;SDS011;64510;46.704;38.274;2023-02-22T10:37:51;5.60;;;4.85;;
75864;SDS011;64510;46.704;38.274;2023-02-22T10:42:48;4.97;;;3.00;;
75864;SDS011;64510;46.704;38.274;2023-02-22T10:45:25;6.28;;;4.50;;
75864;SDS011;64510;46.704;38.274;2023-02-22T10:47:57;5.28;;;3.65;;
75864;SDS011;64510;46.704;38.274;2023-02-22T10:50:27;4.05;;;2.65;;
75864;SDS011;64510;46.704;38.274;2023-02-22T10:52:55;6.20;;;3.65;;
75864;SDS011;64510;46.704;38.274;2023-02-22T10:55:21;6.90;;;2.88;;
75864;SDS011;64510;46.704;38.274;2023-02-22T10:57:48;4.85;;;3.45;;
75864;SDS011;64510;46.704;38.274;2023-02-22T11:00:18;8.68;;;4.22;;
75864;SDS011;64510;46.704;38.274;2023-02-22T11:02:55;8.50;;;4.70;;
75864;SDS011;64510;46.704;38.274;2023-02-22T11:05:27;5.93;;;4.80;;
75864;SDS011;64510;46.704;38.274;2023-02-22T11:10:54;5.53;;;4.43;;
75864;SDS011;64510;46.704;38.274;2023-02-22T11:13:29;3.92;;;3.20;;
75864;SDS011;64510;46.704;38.274;2023-02-22T11:15:58;6.75;;;4.03;;
75864;SDS011;64510;46.704;38.274;2023-02-22T11:18:32;5.00;;;3.13;;
75864;SDS011;64510;46.704;38.274;2023-02-22T11:21:08;6.03;;;3.60;;
75864;SDS011;64510;46.704;38.274;2023-02-22T11:23:39;5.82;;;3.60;;
75864;SDS011;64510;46.704;38.274;2023-02-22T11:26:13;5.38;;;3.67;;
75864;SDS011;64510;46.704;38.274;2023-02-22T11:28:45;4.40;;;2.72;;
75864;SDS011;64510;46.704;38.274;2023-02-22T11:36:32;7.28;;;3.95;;
75864;SDS011;64510;46.704;38.274;2023-02-22T11:39:02;5.20;;;3.95;;
75864;SDS011;64510;46.704;38.274;2023-02-22T11:41:33;8.23;;;4.10;;
75864;SDS011;64510;46.704;38.274;2023-02-22T11:46:50;3.72;;;2.72;;
75864;SDS011;64510;46.704;38.274;2023-02-22T11:54:29;9.80;;;5.15;;
75864;SDS011;64510;46.704;38.274;2023-02-22T12:00:05;6.90;;;3.70;;
75864;SDS011;64510;46.704;38.274;2023-02-22T12:05:42;6.32;;;3.90;;
75864;SDS011;64510;46.704;38.274;2023-02-22T12:16:39;7.95;;;4.85;;
75864;SDS011;64510;46.704;38.274;2023-02-22T12:19:15;7.60;;;4.80;;
75864;SDS011;64510;46.704;38.274;2023-02-22T12:21:53;6.40;;;3.15;;
75864;SDS011;64510;46.704;38.274;2023-02-22T12:24:26;7.70;;;4.07;;
75864;SDS011;64510;46.704;38.274;2023-02-22T12:27:42;5.50;;;3.83;;
75864;SDS011;64510;46.704;38.274;2023-02-22T12:33:10;8.90;;;4.10;;
75864;SDS011;64510;46.704;38.274;2023-02-22T12:35:41;7.43;;;5.15;;
75864;SDS011;64510;46.704;38.274;2023-02-22T12:38:17;8.15;;;4.18;;
75864;SDS011;64510;46.704;38.274;2023-02-22T12:44:09;9.65;;;4.18;;
75864;SDS011;64510;46.704;38.274;2023-02-22T12:46:43;9.00;;;5.78;;
75864;SDS011;64510;46.704;38.274;2023-02-22T12:49:30;7.38;;;4.10;;
75864;SDS011;64510;46.704;38.274;2023-02-22T12:52:24;5.03;;;2.97;;
75864;SDS011;64510;46.704;38.274;2023-02-22T13:11:51;10.55;;;5.28;;
75864;SDS011;64510;46.704;38.274;2023-02-22T13:22:44;11.05;;;5.20;;
75864;SDS011;64510;46.704;38.274;2023-02-22T13:25:36;6.40;;;4.88;;
75864;SDS011;64510;46.704;38.274;2023-02-22T13:28:18;11.10;;;5.65;;
75864;SDS011;64510;46.704;38.274;2023-02-22T13:36:41;9.63;;;4.93;;
75864;SDS011;64510;46.704;38.274;2023-02-22T13:39:35;8.90;;;5.65;;
75864;SDS011;64510;46.704;38.274;2023-02-22T13:47:43;11.88;;;6.68;;
75864;SDS011;64510;46.704;38.274;2023-02-22T13:52:52;9.15;;;5.05;;
75864;SDS011;64510;46.704;38.274;2023-02-22T13:55:24;9.98;;;4.95;;
75864;SDS011;64510;46.704;38.274;2023-02-22T13:58:07;11.68;;;6.70;;
75864;SDS011;64510;46.704;38.274;2023-02-22T14:00:51;9.85;;;4.93;;
75864;SDS011;64510;46.704;38.274;2023-02-22T14:03:38;16.88;;;5.38;;
75864;SDS011;64510;46.704;38.274;2023-02-22T14:06:09;9.80;;;5.40;;
75864;SDS011;64510;46.704;38.274;2023-02-22T14:08:56;12.10;;;5.55;;
75864;SDS011;64510;46.704;38.274;2023-02-22T14:16:25;9.60;;;5.38;;
75864;SDS011;64510;46.704;38.274;2023-02-22T14:19:02;10.80;;;6.63;;
75864;SDS011;64510;46.704;38.274;2023-02-22T14:21:34;12.77;;;7.00;;
75864;SDS011;64510;46.704;38.274;2023-02-22T14:24:08;7.43;;;5.47;;
75864;SDS011;64510;46.704;38.274;2023-02-22T14:26:38;13.45;;;6.57;;
75864;SDS011;64510;46.704;38.274;2023-02-22T14:34:16;12.43;;;5.90;;
75864;SDS011;64510;46.704;38.274;2023-02-22T14:41:57;12.77;;;7.40;;
75864;SDS011;64510;46.704;38.274;2023-02-22T14:44:30;11.02;;;5.53;;
75864;SDS011;64510;46.704;38.274;2023-02-22T14:47:01;12.23;;;5.47;;
75864;SDS011;64510;46.704;38.274;2023-02-22T14:49:30;15.70;;;7.88;;
75864;SDS011;64510;46.704;38.274;2023-02-22T14:52:04;18.75;;;9.20;;
75864;SDS011;64510;46.704;38.274;2023-02-22T14:57:25;9.18;;;7.00;;
75864;SDS011;64510;46.704;38.274;2023-02-22T15:02:55;12.57;;;6.25;;
75864;SDS011;64510;46.704;38.274;2023-02-22T15:05:26;18.70;;;9.07;;
75864;SDS011;64510;46.704;38.274;2023-02-22T15:07:56;10.55;;;5.97;;
75864;SDS011;64510;46.704;38.274;2023-02-22T15:10:25;9.65;;;6.05;;
75864;SDS011;64510;46.704;38.274;2023-02-22T15:12:58;14.13;;;7.10;;
75864;SDS011;64510;46.704;38.274;2023-02-22T15:15:39;17.02;;;7.45;;
75864;SDS011;64510;46.704;38.274;2023-02-22T15:18:20;8.07;;;5.78;;
75864;SDS011;64510;46.704;38.274;2023-02-22T15:21:01;12.82;;;7.40;;
75864;SDS011;64510;46.704;38.274;2023-02-22T15:28:44;14.52;;;6.68;;
75864;SDS011;64510;46.704;38.274;2023-02-22T15:33:51;11.00;;;5.32;;
75864;SDS011;64510;46.704;38.274;2023-02-22T15:36:19;21.65;;;8.25;;
75864;SDS011;64510;46.704;38.274;2023-02-22T15:38:49;9.55;;;5.30;;
75864;SDS011;64510;46.704;38.274;2023-02-22T15:41:22;6.70;;;4.53;;
75864;SDS011;64510;46.704;38.274;2023-02-22T15:44:11;11.77;;;4.10;;
75864;SDS011;64510;46.704;38.274;2023-02-22T15:46:39;13.68;;;8.23;;
75864;SDS011;64510;46.704;38.274;2023-02-22T15:51:34;9.23;;;7.57;;
75864;SDS011;64510;46.704;38.274;2023-02-22T15:54:02;11.30;;;6.00;;
75864;SDS011;64510;46.704;38.274;2023-02-22T15:56:39;14.57;;;7.40;;
75864;SDS011;64510;46.704;38.274;2023-02-22T15:59:11;12.63;;;6.55;;
75864;SDS011;64510;46.704;38.274;2023-02-22T16:01:42;16.33;;;5.10;;
75864;SDS011;64510;46.704;38.274;2023-02-22T16:04:17;12.88;;;6.80;;
75864;SDS011;64510;46.704;38.274;2023-02-22T16:06:45;16.63;;;9.20;;
75864;SDS011;64510;46.704;38.274;2023-02-22T16:09:17;13.75;;;6.35;;
75864;SDS011;64510;46.704;38.274;2023-02-22T16:11:50;10.90;;;6.25;;
75864;SDS011;64510;46.704;38.274;2023-02-22T16:17:11;9.23;;;5.07;;
75864;SDS011;64510;46.704;38.274;2023-02-22T16:20:00;9.93;;;5.88;;
75864;SDS011;64510;46.704;38.274;2023-02-22T16:22:46;14.63;;;5.13;;
75864;SDS011;64510;46.704;38.274;2023-02-22T16:27:43;10.93;;;5.88;;
75864;SDS011;64510;46.704;38.274;2023-02-22T16:32:42;15.45;;;8.05;;
75864;SDS011;64510;46.704;38.274;2023-02-22T16:35:09;12.23;;;7.07;;
75864;SDS011;64510;46.704;38.274;2023-02-22T16:37:56;14.95;;;7.88;;
75864;SDS011;64510;46.704;38.274;2023-02-22T16:40:30;16.48;;;7.40;;
75864;SDS011;64510;46.704;38.274;2023-02-22T16:45:43;13.23;;;6.75;;
75864;SDS011;64510;46.704;38.274;2023-02-22T16:48:22;15.45;;;7.78;;
75864;SDS011;64510;46.704;38.274;2023-02-22T16:50:50;13.25;;;6.38;;
75864;SDS011;64510;46.704;38.274;2023-02-22T16:53:18;9.15;;;4.50;;
75864;SDS011;64510;46.704;38.274;2023-02-22T16:55:46;14.98;;;6.72;;
75864;SDS011;64510;46.704;38.274;2023-02-22T16:58:13;8.45;;;5.50;;
75864;SDS011;64510;46.704;38.274;2023-02-22T17:00:40;7.32;;;4.70;;
75864;SDS011;64510;46.704;38.274;2023-02-22T17:03:09;13.55;;;6.65;;
75864;SDS011;64510;46.704;38.274;2023-02-22T17:05:39;12.90;;;7.43;;
75864;SDS011;64510;46.704;38.274;2023-02-22T17:08:05;8.93;;;6.32;;
75864;SDS011;64510;46.704;38.274;2023-02-22T17:10:31;10.77;;;6.43;;
75864;SDS011;64510;46.704;38.274;2023-02-22T17:12:58;20.13;;;8.15;;
75864;SDS011;64510;46.704;38.274;2023-02-22T17:15:32;10.27;;;5.80;;
75864;SDS011;64510;46.704;38.274;2023-02-22T17:17:59;21.70;;;5.68;;
75864;SDS011;64510;46.704;38.274;2023-02-22T17:20:29;15.70;;;9.18;;
75864;SDS011;64510;46.704;38.274;2023-02-22T17:25:23;14.52;;;7.45;;
75864;SDS011;64510;46.704;38.274;2023-02-22T17:27:52;16.50;;;9.77;;
75864;SDS011;64510;46.704;38.274;2023-02-22T17:30:18;11.70;;;6.07;;
75864;SDS011;64510;46.704;38.274;2023-02-22T17:32:48;20.17;;;7.15;;
75864;SDS011;64510;46.704;38.274;2023-02-22T17:35:18;11.93;;;6.45;;
75864;SDS011;64510;46.704;38.274;2023-02-22T17:37:48;27.30;;;11.23;;
75864;SDS011;64510;46.704;38.274;2023-02-22T17:40:14;21.23;;;9.85;;
75864;SDS011;64510;46.704;38.274;2023-02-22T17:42:41;17.92;;;7.88;;
75864;SDS011;64510;46.704;38.274;2023-02-22T17:45:09;16.17;;;7.47;;
75864;SDS011;64510;46.704;38.274;2023-02-22T17:47:39;24.63;;;9.10;;
75864;SDS011;64510;46.704;38.274;2023-02-22T17:50:07;10.60;;;6.63;;
75864;SDS011;64510;46.704;38.274;2023-02-22T17:52:34;9.95;;;7.25;;
75864;SDS011;64510;46.704;38.274;2023-02-22T17:55:01;15.73;;;7.50;;